Time;durP1;ratioP1;P1;durP2;ratioP2;P2;SDS_P1;SDS_P2;PMS_P1;PMS_P2;Temp;Humidity;BMP_temperature;BMP_pressure;BME280_temperature;BME280_humidity;BME280_pressure;Samples;Min_cycle;Max_cycle;Signal;HPM_P1;HPM_P2
2022/01/13 00:36:24;;;;;;;108.20;54.45;;;39.10;2201.60;;;;;;5018131;28;20576;-79
2022/01/13 00:53:52;;;;;;;126.65;59.03;;;39.20;2201.60;;;;;;4979066;28;20066;-77
2022/01/13 00:57:17;;;;;;;144.50;63.88;;;39.30;2201.60;;;;;;5010310;28;20031;-78
2022/01/13 09:13:44;;;;;;;104.60;59.67;;;13.70;2201.60;;;;;;5054117;28;20144;-89
2022/01/13 09:16:19;;;;;;;101.63;55.50;;;13.20;2201.60;;;;;;5052429;28;20083;-88
2022/01/13 09:21:20;;;;;;;88.65;49.15;;;13.50;2201.60;;;;;;5052334;28;20025;-86
2022/01/13 09:23:46;;;;;;;65.88;37.05;;;13.30;2201.60;;;;;;5052975;28;20029;-86
2022/01/13 09:26:13;;;;;;;49.50;28.65;;;13.40;2201.60;;;;;;5052777;28;20024;-89
2022/01/13 09:28:41;;;;;;;79.75;53.97;;;13.00;2201.60;;;;;;5054019;28;20088;-87
2022/01/13 09:34:32;;;;;;;52.80;32.03;;;13.10;2201.60;;;;;;5054589;28;20031;-90
2022/01/13 09:51:23;;;;;;;54.17;30.50;;;12.90;2201.60;;;;;;5029429;28;20128;-90
2022/01/13 09:54:09;;;;;;;50.95;28.38;;;13.00;2201.60;;;;;;4988152;28;20041;-89
2022/01/13 09:56:35;;;;;;;46.50;25.98;;;13.00;2201.60;;;;;;5031929;28;20017;-89
2022/01/13 09:59:02;;;;;;;43.78;28.95;;;13.00;2201.60;;;;;;5052300;28;20025;-89
2022/01/13 10:01:27;;;;;;;36.03;20.60;;;0.00;2201.60;;;;;;5052063;28;20031;-88
2022/01/13 10:03:53;;;;;;;54.58;33.85;;;13.00;2201.60;;;;;;5048752;28;20116;-87
2022/01/13 10:06:24;;;;;;;44.35;23.95;;;0.00;2201.60;;;;;;5032855;28;20399;-88
2022/01/13 10:08:52;;;;;;;57.40;33.97;;;0.10;2201.60;;;;;;5032694;28;20026;-86
2022/01/13 10:17:07;;;;;;;52.10;31.33;;;0.40;2201.60;;;;;;5033456;28;20020;-86
2022/01/13 10:19:37;;;;;;;56.92;35.05;;;0.50;2201.60;;;;;;5032737;28;20025;-85
2022/01/13 10:22:06;;;;;;;66.80;38.92;;;0.70;2201.60;;;;;;5033519;28;20535;-85
2022/01/13 10:24:49;;;;;;;58.97;36.67;;;0.80;2201.60;;;;;;5033367;28;20017;-90
2022/01/13 10:27:21;;;;;;;52.30;31.38;;;0.70;2201.60;;;;;;5032598;28;20018;-88
2022/01/13 10:29:50;;;;;;;45.70;28.92;;;0.80;2201.60;;;;;;5035543;28;20480;-90
2022/01/13 10:32:31;;;;;;;73.53;48.10;;;0.70;2201.60;;;;;;5036928;28;20465;-89
2022/01/13 10:35:03;;;;;;;51.25;32.33;;;0.70;2201.60;;;;;;5037262;28;20021;-89
2022/01/13 10:37:32;;;;;;;34.20;19.92;;;0.70;2201.60;;;;;;5036304;28;20049;-90
2022/01/13 10:40:18;;;;;;;57.53;34.28;;;0.50;2201.60;;;;;;5036482;28;20025;-89
2022/01/13 10:45:21;;;;;;;47.92;27.65;;;0.90;2201.60;;;;;;5037922;28;20030;-90
2022/01/13 10:48:23;;;;;;;43.40;27.08;;;25.70;2201.60;;;;;;5036111;28;20045;-86
2022/01/13 10:51:02;;;;;;;69.00;39.55;;;25.90;2201.60;;;;;;5036009;28;20465;-88
2022/01/13 10:53:44;;;;;;;61.38;35.58;;;26.00;2201.60;;;;;;5036310;28;20021;-90
2022/01/13 10:56:14;;;;;;;57.92;36.40;;;25.80;2201.60;;;;;;5036371;28;20017;-88
2022/01/13 10:59:15;;;;;;;68.32;40.25;;;25.60;2201.60;;;;;;5035914;28;20029;-89
2022/01/13 11:01:44;;;;;;;66.28;36.90;;;0.80;2201.60;;;;;;5035709;28;20053;-80
2022/01/13 11:04:16;;;;;;;470.98;75.40;;;0.70;2201.60;;;;;;5035130;28;20036;-83
2022/01/13 11:06:42;;;;;;;65.80;38.33;;;0.70;2201.60;;;;;;5044648;28;20020;-82
2022/01/13 11:09:16;;;;;;;68.25;43.28;;;0.90;2201.60;;;;;;5060112;28;20014;-89
2022/01/13 11:11:45;;;;;;;66.53;41.03;;;25.70;2201.60;;;;;;5042119;28;20044;-88
2022/01/13 11:14:21;;;;;;;53.42;32.72;;;25.80;2201.60;;;;;;5036953;28;20022;-87
2022/01/13 11:16:47;;;;;;;59.15;33.25;;;26.00;2201.60;;;;;;5036979;28;20437;-89
2022/01/13 11:19:17;;;;;;;74.13;42.97;;;26.20;2201.60;;;;;;5036299;28;20028;-89
2022/01/13 11:21:43;;;;;;;60.17;36.03;;;26.20;2201.60;;;;;;5035234;28;20113;-89
2022/01/13 11:24:10;;;;;;;63.95;34.67;;;26.30;2201.60;;;;;;5035476;28;20186;-88
2022/01/13 11:26:36;;;;;;;39.42;21.17;;;26.40;2201.60;;;;;;5034638;28;20026;-87
2022/01/13 11:29:04;;;;;;;67.65;41.63;;;26.20;2201.60;;;;;;5035356;28;20121;-87
2022/01/13 11:31:30;;;;;;;61.50;35.15;;;26.10;2201.60;;;;;;5035053;28;20032;-88
2022/01/13 11:33:57;;;;;;;55.90;35.42;;;26.10;2201.60;;;;;;5034730;28;20491;-88
2022/01/13 11:36:23;;;;;;;51.75;31.67;;;26.30;2201.60;;;;;;5034733;28;20025;-83
2022/01/13 11:39:02;;;;;;;50.47;29.05;;;26.50;2201.60;;;;;;5033523;28;20120;-87
2022/01/13 11:41:28;;;;;;;38.13;23.70;;;26.50;2201.60;;;;;;5033476;28;20021;-83
2022/01/13 11:44:11;;;;;;;48.85;27.75;;;26.40;2201.60;;;;;;5034150;28;20025;-83
2022/01/13 11:46:45;;;;;;;49.72;31.38;;;51.20;2227.20;;;;;;5034328;28;20476;-82
2022/01/13 11:49:18;;;;;;;59.75;34.90;;;51.40;2227.20;;;;;;5034724;28;20413;-86
2022/01/13 11:51:57;;;;;;;65.38;36.67;;;51.30;2227.20;;;;;;5034134;28;20025;-85
2022/01/13 11:54:35;;;;;;;77.10;47.15;;;26.10;2201.60;;;;;;5036203;28;20462;-84
2022/01/13 11:57:21;;;;;;;73.32;39.88;;;26.20;2201.60;;;;;;5036270;28;20021;-83
2022/01/13 12:00:07;;;;;;;46.47;27.70;;;26.50;2201.60;;;;;;5034586;28;20405;-88
2022/01/13 12:02:39;;;;;;;45.03;27.33;;;51.20;2227.20;;;;;;5023742;28;20041;-85
2022/01/13 12:05:14;;;;;;;44.60;27.93;;;51.40;2227.20;;;;;;5034486;28;20091;-88
2022/01/13 12:08:14;;;;;;;45.13;26.67;;;51.40;2227.20;;;;;;5034543;28;20524;-84
2022/01/13 12:11:34;;;;;;;41.83;24.77;;;51.40;2227.20;;;;;;5034034;28;20018;-88
2022/01/13 12:14:42;;;;;;;66.43;37.03;;;51.20;2227.20;;;;;;5002712;28;20026;-86
2022/01/13 12:17:27;;;;;;;42.72;28.38;;;26.20;2201.60;;;;;;5034053;28;20048;-88
2022/01/13 12:20:03;;;;;;;63.78;36.67;;;26.20;2201.60;;;;;;5033931;28;20032;-89
2022/01/13 12:22:41;;;;;;;61.42;38.28;;;26.10;2201.60;;;;;;5033602;28;20030;-86
2022/01/13 12:25:13;;;;;;;65.50;40.45;;;51.60;2227.20;;;;;;5033972;28;20017;-86
2022/01/13 12:27:52;;;;;;;62.30;37.42;;;51.80;2227.20;;;;;;5033907;28;20022;-83
2022/01/13 12:30:21;;;;;;;65.90;38.33;;;51.80;2227.20;;;;;;5033856;28;20017;-85
2022/01/13 12:32:52;;;;;;;50.50;33.00;;;52.10;2227.20;;;;;;5033823;28;20036;-84
2022/01/13 12:35:42;;;;;;;57.38;37.40;;;52.10;2227.20;;;;;;5033752;28;20060;-85
2022/01/13 12:38:22;;;;;;;43.17;26.60;;;51.90;2227.20;;;;;;5033947;28;20083;-83
2022/01/13 12:41:13;;;;;;;62.83;40.08;;;52.00;2227.20;;;;;;5033460;28;20028;-81
2022/01/13 12:46:10;;;;;;;77.63;46.55;;;76.80;2227.20;;;;;;5034311;28;20053;-83
2022/01/13 12:48:38;;;;;;;60.85;36.47;;;51.80;2227.20;;;;;;5033705;28;20044;-84
2022/01/13 12:51:04;;;;;;;60.60;37.55;;;76.80;2227.20;;;;;;5035239;28;20335;-86
2022/01/13 12:53:33;;;;;;;66.45;41.13;;;51.70;2227.20;;;;;;5037366;28;20460;-86
2022/01/13 12:56:19;;;;;;;64.88;39.50;;;52.10;2227.20;;;;;;5035218;28;20026;-85
2022/01/13 12:59:00;;;;;;;64.60;38.30;;;77.10;2227.20;;;;;;5037840;28;20029;-83
2022/01/13 13:01:29;;;;;;;65.30;37.17;;;77.20;2227.20;;;;;;5035770;28;20460;-82
2022/01/13 13:04:09;;;;;;;55.90;33.22;;;77.30;2227.20;;;;;;5036049;28;20013;-84
2022/01/13 13:06:48;;;;;;;55.90;32.53;;;76.90;2227.20;;;;;;5033944;28;20018;-88
2022/01/13 13:09:20;;;;;;;59.15;37.08;;;76.90;2227.20;;;;;;5033507;28;20017;-85
2022/01/13 13:11:49;;;;;;;80.57;44.70;;;76.90;2227.20;;;;;;5033475;28;20021;-85
2022/01/13 13:14:23;;;;;;;89.43;44.78;;;77.10;2227.20;;;;;;5032773;28;20545;-85
2022/01/13 13:16:51;;;;;;;66.15;40.03;;;77.30;2227.20;;;;;;5033352;28;20017;-85
2022/01/13 13:19:23;;;;;;;72.97;45.50;;;77.50;2176.00;;;;;;5033117;28;20087;-88
2022/01/13 13:21:52;;;;;;;61.10;39.53;;;102.40;2201.60;;;;;;5033574;28;20029;-85
2022/01/13 13:24:26;;;;;;;52.13;29.83;;;102.40;2176.00;;;;;;5033320;28;20025;-86
2022/01/13 13:26:52;;;;;;;41.03;25.83;;;77.70;2176.00;;;;;;5033092;28;20053;-81
2022/01/13 13:29:28;;;;;;;72.40;38.63;;;77.60;2150.40;;;;;;5033889;28;20026;-84
2022/01/13 13:31:58;;;;;;;73.25;39.25;;;77.70;2150.40;;;;;;5032779;28;20066;-86
2022/01/13 13:34:33;;;;;;;66.10;38.55;;;77.70;2201.60;;;;;;5033967;28;20014;-85
2022/01/13 13:36:59;;;;;;;59.70;35.75;;;77.40;2227.20;;;;;;5033059;28;20036;-84
2022/01/13 13:39:26;;;;;;;71.28;41.85;;;77.20;2227.20;;;;;;5032882;28;20353;-84
2022/01/13 13:41:58;;;;;;;52.92;32.88;;;77.30;2227.20;;;;;;5032672;28;20026;-83
2022/01/13 13:44:27;;;;;;;63.17;39.35;;;77.30;2227.20;;;;;;5032599;28;20028;-84
2022/01/13 13:47:07;;;;;;;77.20;46.15;;;77.40;2227.20;;;;;;5032833;28;20477;-86
2022/01/13 13:49:35;;;;;;;98.63;56.28;;;77.30;2227.20;;;;;;5033102;28;20025;-85
2022/01/13 13:52:06;;;;;;;211.48;135.95;;;77.20;2227.20;;;;;;5032882;28;20026;-82
2022/01/13 13:54:36;;;;;;;96.82;69.13;;;77.00;2227.20;;;;;;5033122;28;20040;-82
2022/01/13 13:57:07;;;;;;;88.43;58.92;;;77.20;2227.20;;;;;;5032646;28;20024;-84
2022/01/13 13:59:46;;;;;;;98.72;57.17;;;77.20;2227.20;;;;;;5032221;28;20026;-84
2022/01/13 14:02:25;;;;;;;91.25;57.13;;;77.30;2227.20;;;;;;5032280;28;20369;-83
2022/01/13 14:04:54;;;;;;;78.53;46.72;;;77.40;2227.20;;;;;;5035442;28;20103;-83
2022/01/13 14:07:24;;;;;;;95.15;58.05;;;77.50;2227.20;;;;;;5037285;28;20024;-83
2022/01/13 14:10:09;;;;;;;94.60;56.13;;;77.40;2227.20;;;;;;5036142;28;20404;-83
2022/01/13 14:12:40;;;;;;;90.68;56.42;;;77.50;2227.20;;;;;;5037270;28;20030;-82
2022/01/13 14:15:25;;;;;;;98.88;59.53;;;77.40;2227.20;;;;;;5035733;28;20400;-81
2022/01/13 14:17:54;;;;;;;85.85;53.13;;;77.30;2227.20;;;;;;5035846;28;20457;-81
2022/01/13 14:20:25;;;;;;;76.22;46.53;;;77.00;2227.20;;;;;;5035147;28;20091;-81
2022/01/13 14:22:55;;;;;;;86.97;55.70;;;77.00;2227.20;;;;;;5037329;28;20025;-79
2022/01/13 14:25:21;;;;;;;66.30;44.45;;;76.90;2227.20;;;;;;5036337;28;20029;-82
2022/01/13 14:27:55;;;;;;;67.43;41.03;;;52.10;2227.20;;;;;;5036192;28;20072;-79
2022/01/13 14:30:29;;;;;;;84.25;52.95;;;52.00;2227.20;;;;;;5036059;28;20024;-84
2022/01/13 14:33:30;;;;;;;86.45;50.42;;;51.70;2227.20;;;;;;5037123;28;20025;-81
2022/01/13 14:36:07;;;;;;;75.45;43.35;;;51.50;2227.20;;;;;;5036486;28;20025;-88
2022/01/13 14:38:38;;;;;;;70.40;44.60;;;51.30;2227.20;;;;;;5036783;28;20028;-88
2022/01/13 14:41:05;;;;;;;80.55;48.60;;;51.20;2227.20;;;;;;5036590;28;20021;-87
2022/01/13 14:43:31;;;;;;;90.82;54.53;;;26.40;2201.60;;;;;;5036168;28;20041;-86
2022/01/13 14:46:12;;;;;;;85.60;55.85;;;26.20;2201.60;;;;;;5036062;28;20025;-87
2022/01/13 14:48:41;;;;;;;79.05;49.10;;;26.00;2201.60;;;;;;5036171;28;20029;-86
2022/01/13 14:51:07;;;;;;;77.68;47.55;;;25.90;2201.60;;;;;;5035624;28;20102;-90
2022/01/13 14:53:34;;;;;;;64.25;39.85;;;25.80;2201.60;;;;;;5035764;28;20029;-88
2022/01/13 14:56:03;;;;;;;69.80;42.83;;;25.80;2201.60;;;;;;5036110;28;20079;-88
2022/01/13 14:58:29;;;;;;;72.05;44.53;;;25.70;2201.60;;;;;;5036085;28;20117;-89
2022/01/13 15:00:56;;;;;;;87.40;51.05;;;0.90;2201.60;;;;;;5036216;28;20025;-88
2022/01/13 15:03:23;;;;;;;96.10;54.25;;;0.80;2201.60;;;;;;5036052;28;20032;-85
2022/01/13 15:05:48;;;;;;;94.90;54.80;;;25.90;2201.60;;;;;;5036544;28;20021;-87
2022/01/13 15:08:15;;;;;;;95.10;58.08;;;0.50;2201.60;;;;;;5036300;28;20021;-89
2022/01/13 15:10:59;;;;;;;99.45;59.70;;;0.40;2201.60;;;;;;5035748;28;20029;-89
2022/01/13 15:13:28;;;;;;;101.30;59.88;;;0.50;2201.60;;;;;;5035493;28;20021;-88
2022/01/13 15:16:06;;;;;;;97.10;57.53;;;0.50;2201.60;;;;;;5035383;28;20440;-89
2022/01/13 15:18:34;;;;;;;79.68;45.63;;;0.40;2201.60;;;;;;5036309;28;20021;-88
2022/01/13 15:21:04;;;;;;;81.55;48.42;;;0.10;2201.60;;;;;;5035866;28;20499;-86
2022/01/13 15:23:32;;;;;;;106.63;62.20;;;0.10;2201.60;;;;;;5035586;28;20036;-88
2022/01/13 15:25:58;;;;;;;119.47;76.30;;;0.30;2201.60;;;;;;5035465;28;20018;-90
2022/01/13 15:28:25;;;;;;;108.68;64.60;;;0.20;2201.60;;;;;;5035852;28;20018;-85
2022/01/13 15:30:52;;;;;;;131.40;78.30;;;0.40;2201.60;;;;;;5035812;28;20453;-90
2022/01/13 15:33:21;;;;;;;141.18;84.68;;;0.50;2201.60;;;;;;5035763;28;20021;-89
2022/01/13 15:35:51;;;;;;;143.40;85.65;;;0.50;2201.60;;;;;;5035633;28;20514;-91
2022/01/13 15:38:19;;;;;;;141.20;80.63;;;0.50;2201.60;;;;;;5035620;28;20040;-88
2022/01/13 15:40:49;;;;;;;96.70;62.08;;;0.50;2201.60;;;;;;5036111;28;20018;-89
2022/01/13 15:43:19;;;;;;;108.47;66.45;;;0.30;2201.60;;;;;;5035970;28;20029;-91
2022/01/13 15:45:46;;;;;;;103.85;60.97;;;0.00;2201.60;;;;;;5036241;28;20018;-92
2022/01/13 15:48:12;;;;;;;107.85;60.83;;;0.00;2201.60;;;;;;5035872;28;20025;-91
2022/01/13 15:50:38;;;;;;;118.47;68.28;;;0.00;2201.60;;;;;;5036011;28;20082;-91
2022/01/13 15:53:05;;;;;;;130.32;74.68;;;0.10;2201.60;;;;;;5035849;28;20369;-91
2022/01/13 15:55:33;;;;;;;129.48;72.97;;;0.20;2201.60;;;;;;5035185;28;20021;-91
2022/01/13 15:58:00;;;;;;;167.50;99.43;;;0.00;2201.60;;;;;;5035383;28;20021;-89
2022/01/13 16:00:26;;;;;;;232.32;129.65;;;12.90;2201.60;;;;;;5034947;28;20079;-90
2022/01/13 16:02:52;;;;;;;225.77;131.30;;;0.30;2201.60;;;;;;5036437;28;20048;-87
2022/01/13 16:05:18;;;;;;;212.18;122.30;;;13.00;2201.60;;;;;;5036859;28;20013;-89
2022/01/13 16:07:44;;;;;;;174.02;107.63;;;13.00;2201.60;;;;;;5036357;28;20024;-89
2022/01/13 16:10:13;;;;;;;167.70;103.35;;;13.10;2201.60;;;;;;5039003;28;20071;-84
2022/01/13 16:12:40;;;;;;;168.40;102.43;;;13.10;2201.60;;;;;;5033984;28;20355;-87
2022/01/13 16:15:11;;;;;;;200.57;114.28;;;13.10;2201.60;;;;;;5035199;28;20041;-86
2022/01/13 16:17:37;;;;;;;181.85;111.18;;;13.30;2201.60;;;;;;5034973;28;20059;-89
2022/01/13 16:20:04;;;;;;;183.23;108.82;;;13.30;2201.60;;;;;;5035107;28;20056;-88
2022/01/13 16:22:30;;;;;;;218.73;131.52;;;13.40;2201.60;;;;;;5034979;28;20528;-88
2022/01/13 16:24:56;;;;;;;109.80;68.63;;;13.40;2201.60;;;;;;5035072;28;20025;-88
2022/01/13 16:27:22;;;;;;;86.85;51.42;;;13.50;2201.60;;;;;;5034717;28;20024;-89
2022/01/13 16:33:10;;;;;;;127.60;75.90;;;13.60;2201.60;;;;;;5036756;28;20099;-90
2022/01/13 16:35:37;;;;;;;111.80;63.35;;;13.50;2201.60;;;;;;5036197;28;20017;-91
2022/01/13 16:38:04;;;;;;;110.57;65.43;;;13.70;2201.60;;;;;;5040247;28;20064;-89
2022/01/13 16:40:35;;;;;;;111.30;63.92;;;13.70;2201.60;;;;;;5035632;28;20017;-90
2022/01/13 16:43:03;;;;;;;124.70;74.00;;;13.60;2201.60;;;;;;5036909;28;20032;-90
2022/01/13 16:45:32;;;;;;;113.88;69.45;;;13.60;2201.60;;;;;;5035515;28;20013;-90
2022/01/13 16:47:59;;;;;;;114.05;64.68;;;13.60;2201.60;;;;;;5035496;28;20041;-90
2022/01/13 16:50:27;;;;;;;130.55;72.63;;;13.70;2201.60;;;;;;5036400;28;20013;-90
2022/01/13 16:52:54;;;;;;;145.18;81.88;;;38.40;2201.60;;;;;;5036125;28;20074;-88
2022/01/13 16:55:21;;;;;;;204.48;113.28;;;38.50;2201.60;;;;;;5035891;28;20343;-89
2022/01/13 16:57:48;;;;;;;159.63;95.00;;;38.50;2201.60;;;;;;5035672;28;20461;-89
2022/01/13 17:00:16;;;;;;;173.95;101.80;;;38.50;2201.60;;;;;;5035563;28;20369;-87
2022/01/13 17:02:42;;;;;;;149.45;92.72;;;38.40;2201.60;;;;;;5018922;28;20097;-89
2022/01/13 17:05:10;;;;;;;137.77;81.57;;;38.70;2201.60;;;;;;5034412;28;20021;-89
2022/01/13 17:07:41;;;;;;;119.68;71.53;;;38.60;2201.60;;;;;;5034188;28;20017;-88
2022/01/13 17:10:08;;;;;;;98.07;60.30;;;38.60;2201.60;;;;;;5033656;28;20025;-88
2022/01/13 17:12:36;;;;;;;89.80;55.95;;;38.80;2201.60;;;;;;5033705;28;20036;-89
2022/01/13 17:15:05;;;;;;;179.05;99.07;;;38.70;2201.60;;;;;;5035015;28;20018;-85
2022/01/13 17:17:31;;;;;;;200.13;110.93;;;38.70;2201.60;;;;;;5033420;28;20354;-90
2022/01/13 17:20:04;;;;;;;137.27;83.22;;;38.70;2201.60;;;;;;5034627;28;20021;-88
2022/01/13 17:22:37;;;;;;;168.93;99.45;;;38.80;2201.60;;;;;;5033071;28;20033;-89
2022/01/13 17:25:05;;;;;;;182.57;113.25;;;38.70;2201.60;;;;;;5033700;28;20056;-87
2022/01/13 17:27:31;;;;;;;178.02;107.20;;;38.80;2201.60;;;;;;5033451;28;20036;-88
2022/01/13 17:29:57;;;;;;;232.43;133.75;;;38.90;2201.60;;;;;;5033353;28;20022;-87
2022/01/13 17:32:26;;;;;;;260.10;154.20;;;38.80;2201.60;;;;;;5033883;28;20022;-86
2022/01/13 17:34:53;;;;;;;416.95;231.05;;;38.90;2201.60;;;;;;5034843;28;20071;-89
2022/01/13 17:37:21;;;;;;;267.52;151.63;;;38.80;2201.60;;;;;;5039177;28;20485;-89
2022/01/13 18:04:00;;;;;;;193.40;107.82;;;64.10;2201.60;;;;;;5081649;22;20060;-87
2022/01/13 18:45:10;;;;;;;255.35;147.68;;;64.30;2201.60;;;;;;5068806;28;20048;-79
2022/01/13 18:51:18;;;;;;;293.55;158.45;;;64.20;2201.60;;;;;;5068269;28;20434;-78
2022/01/13 18:57:16;;;;;;;407.98;217.75;;;64.00;2201.60;;;;;;5067744;28;20032;-82
2022/01/13 18:59:48;;;;;;;331.77;193.88;;;64.00;2201.60;;;;;;5044930;28;20049;-80
2022/01/13 19:02:31;;;;;;;310.85;178.43;;;64.20;2201.60;;;;;;5027205;28;20084;-78
2022/01/13 19:08:28;;;;;;;328.02;191.20;;;64.30;2201.60;;;;;;5071913;28;20024;-79
2022/01/13 19:17:56;;;;;;;263.55;144.13;;;89.90;2176.00;;;;;;5076542;28;20585;-78
2022/01/13 19:24:34;;;;;;;272.02;147.63;;;90.10;2176.00;;;;;;5076979;28;20084;-78
2022/01/13 19:27:46;;;;;;;300.90;166.40;;;90.10;2176.00;;;;;;5036242;28;20026;-78
2022/01/13 19:31:05;;;;;;;284.65;154.55;;;89.70;2176.00;;;;;;5019672;28;20029;-78
2022/01/13 19:33:31;;;;;;;316.23;177.07;;;64.90;2201.60;;;;;;5012152;28;20121;-76
2022/01/13 19:35:59;;;;;;;355.85;197.05;;;64.90;2201.60;;;;;;5029313;28;20097;-77
2022/01/13 19:38:25;;;;;;;287.02;159.80;;;89.70;2176.00;;;;;;5069034;28;20116;-77
2022/01/13 19:40:52;;;;;;;298.55;170.52;;;90.00;2176.00;;;;;;5068219;28;20361;-77
2022/01/13 19:43:18;;;;;;;285.85;159.93;;;89.90;2176.00;;;;;;5070286;28;20045;-76
2022/01/13 19:45:43;;;;;;;274.80;158.10;;;89.70;2176.00;;;;;;5070331;28;20092;-76
2022/01/13 19:48:10;;;;;;;271.05;152.90;;;64.90;2201.60;;;;;;5071564;28;20029;-76
2022/01/13 19:50:36;;;;;;;280.75;157.68;;;89.70;2176.00;;;;;;5078078;28;20032;-75
2022/01/13 19:53:13;;;;;;;279.20;156.52;;;89.70;2176.00;;;;;;5077655;28;20017;-75
2022/01/13 19:55:52;;;;;;;273.27;152.07;;;64.70;2201.60;;;;;;5074972;28;20021;-75
2022/01/13 19:58:19;;;;;;;289.60;161.77;;;89.70;2176.00;;;;;;5071647;28;20017;-76
2022/01/13 20:00:46;;;;;;;289.88;162.13;;;89.90;2176.00;;;;;;5069078;28;20025;-77
2022/01/13 20:03:30;;;;;;;296.52;165.98;;;89.90;2176.00;;;;;;5069942;28;20033;-77
2022/01/13 20:06:01;;;;;;;267.67;146.35;;;90.00;2176.00;;;;;;5068866;28;20017;-79
2022/01/13 20:08:28;;;;;;;279.77;154.85;;;90.40;2176.00;;;;;;5068427;28;20024;-77
2022/01/13 20:11:41;;;;;;;267.40;147.98;;;90.30;2176.00;;;;;;5069346;28;20075;-78
2022/01/13 20:14:09;;;;;;;199.25;119.88;;;90.10;2176.00;;;;;;5066979;28;20111;-76
2022/01/13 20:16:41;;;;;;;219.65;121.20;;;90.20;2176.00;;;;;;5067631;28;20045;-78
2022/01/13 20:20:34;;;;;;;178.75;106.63;;;90.30;2176.00;;;;;;5070229;28;20025;-78
2022/01/13 20:30:57;;;;;;;174.27;98.60;;;115.30;2176.00;;;;;;4950158;29;20030;-79
2022/01/13 20:33:46;;;;;;;197.65;113.72;;;115.30;2176.00;;;;;;4914842;29;20025;-77
2022/01/13 20:36:52;;;;;;;247.80;124.50;;;115.20;2176.00;;;;;;4934050;29;20079;-78
2022/01/13 20:40:22;;;;;;;372.73;191.48;;;90.50;2176.00;;;;;;4935738;29;20031;-79
2022/01/13 21:04:39;;;;;;;206.13;112.75;;;115.50;2176.00;;;;;;5053937;28;20051;-78
2022/01/13 21:07:06;;;;;;;211.35;114.10;;;115.70;2176.00;;;;;;5036588;28;20031;-77
2022/01/13 21:09:32;;;;;;;204.57;108.40;;;115.40;2176.00;;;;;;5059996;28;20033;-77
2022/01/13 21:11:58;;;;;;;246.23;128.98;;;115.40;2176.00;;;;;;5061148;28;20029;-77
2022/01/13 21:14:25;;;;;;;255.18;137.27;;;115.30;2176.00;;;;;;5061663;28;20017;-77
2022/01/13 21:16:51;;;;;;;284.55;151.15;;;115.40;2176.00;;;;;;5063468;28;20021;-77
2022/01/13 21:19:17;;;;;;;262.48;133.45;;;115.40;2176.00;;;;;;5062700;28;20400;-77
2022/01/13 21:21:44;;;;;;;236.30;124.47;;;115.50;2176.00;;;;;;5062454;28;20039;-77
2022/01/13 21:24:12;;;;;;;209.82;113.88;;;115.40;2176.00;;;;;;5063553;28;20049;-78
2022/01/13 21:26:40;;;;;;;217.88;123.78;;;115.50;2176.00;;;;;;5046351;28;20022;-77
2022/01/13 21:29:08;;;;;;;192.82;113.47;;;115.30;2176.00;;;;;;5062816;28;20047;-77
2022/01/13 21:31:35;;;;;;;200.70;112.43;;;115.40;2176.00;;;;;;5067289;28;20032;-77
2022/01/13 21:34:01;;;;;;;213.43;112.57;;;90.50;2176.00;;;;;;5063951;28;20028;-77
2022/01/13 21:36:29;;;;;;;185.20;104.35;;;115.50;2176.00;;;;;;5064213;28;20086;-78
2022/01/13 21:38:55;;;;;;;182.73;100.70;;;115.80;2176.00;;;;;;5063333;28;20017;-77
2022/01/13 21:41:23;;;;;;;190.27;101.22;;;115.50;2176.00;;;;;;5063561;28;20081;-77
2022/01/13 21:43:53;;;;;;;179.13;101.10;;;115.60;2176.00;;;;;;5063944;28;20037;-76
2022/01/13 21:46:21;;;;;;;168.90;98.30;;;115.20;2176.00;;;;;;5063065;28;20045;-76
2022/01/13 21:48:47;;;;;;;180.25;98.50;;;115.70;2176.00;;;;;;5063719;28;20025;-78
2022/01/13 21:51:13;;;;;;;186.95;103.47;;;115.70;2176.00;;;;;;5063884;28;20027;-77
2022/01/13 21:53:39;;;;;;;201.90;108.80;;;115.50;2176.00;;;;;;5063404;28;20029;-77
2022/01/13 21:56:07;;;;;;;188.48;99.38;;;115.50;2176.00;;;;;;5060693;28;20049;-77
2022/01/13 21:58:36;;;;;;;168.25;92.78;;;116.10;2176.00;;;;;;5061287;28;20048;-77
2022/01/13 22:01:05;;;;;;;168.48;93.05;;;140.90;2176.00;;;;;;5061054;28;20037;-77
2022/01/13 22:03:32;;;;;;;173.88;95.88;;;141.10;2176.00;;;;;;5047050;28;20025;-77
2022/01/13 22:05:58;;;;;;;207.02;110.68;;;141.00;2176.00;;;;;;5043561;28;20056;-78
2022/01/13 22:11:16;;;;;;;211.57;108.63;;;140.80;2176.00;;;;;;5023044;28;20036;-76
2022/01/13 22:13:42;;;;;;;258.67;133.23;;;116.10;2176.00;;;;;;5043388;28;20029;-77
2022/01/13 22:16:12;;;;;;;243.80;123.28;;;116.00;2176.00;;;;;;5049803;28;20024;-76
2022/01/13 22:18:41;;;;;;;147.95;80.63;;;116.10;2176.00;;;;;;5048947;28;20025;-78
2022/01/13 22:28:29;;;;;;;194.55;96.53;;;115.80;2176.00;;;;;;5068607;28;20090;-79
2022/01/13 22:35:27;;;;;;;383.17;189.95;;;116.10;2176.00;;;;;;4929409;29;20099;-79
2022/01/13 22:42:33;;;;;;;193.95;101.38;;;115.90;2176.00;;;;;;4816268;29;20098;-79
2022/01/13 23:27:07;;;;;;;186.63;94.35;;;141.50;2176.00;;;;;;4880696;28;20061;-77
2022/01/13 23:29:33;;;;;;;163.45;87.18;;;141.40;2176.00;;;;;;4985209;28;20037;-77
2022/01/13 23:36:12;;;;;;;125.47;62.78;;;141.10;2176.00;;;;;;5003264;28;20065;-79
